Felix-Klein-Gymnasium, Gttingen, 150m NN
Donnes mto: Actuelle Montag, 06.07.2020 05:00
Date Horaire Temp. E. Hum. E. P.atmo. Pluie Vent Direction Direction Ensoleilleme P. de rose Temp au vent Rafales
06.07.2020 05:00 14,9 C 72 % 1008,4 hPa 0,0 mm 0,6 km/h (0 Bft) S-SO 205 0 min 9,9 C 14,9 C 9,7 km/h (2 Bft)
06.07.2020 04:45 15,1 C 72 % 1008,3 hPa 0,0 mm 0,0 km/h (0 Bft) S 190 0 min 10,1 C 15,1 C 0,0 km/h (0 Bft)
06.07.2020 04:30 15,4 C 71 % 1008,2 hPa 0,0 mm 0,0 km/h (0 Bft) SO 215 0 min 10,2 C 15,4 C 3,2 km/h (1 Bft)
06.07.2020 04:15 15,7 C 70 % 1008,1 hPa 0,0 mm 0,6 km/h (0 Bft) SO 236 0 min 10,2 C 15,7 C 9,7 km/h (2 Bft)
06.07.2020 04:00 16,2 C 69 % 1008,0 hPa 0,0 mm 0,0 km/h (0 Bft) O-SO 250 0 min 10,5 C 16,2 C 0,0 km/h (0 Bft)
06.07.2020 03:45 16,5 C 68 % 1008,0 hPa 0,0 mm 6,0 km/h (2 Bft) O-SO 240 0 min 10,6 C 16,5 C 30,6 km/h (5 Bft)
06.07.2020 03:30 16,9 C 66 % 1007,9 hPa 0,0 mm 12,5 km/h (3 Bft) O-NO 290 0 min 10,5 C 16,9 C 30,6 km/h (5 Bft)
06.07.2020 03:15 17,3 C 62 % 1007,7 hPa 0,0 mm 5,2 km/h (1 Bft) O-NO 299 0 min 9,9 C 17,3 C 20,9 km/h (4 Bft)
06.07.2020 03:00 17,8 C 56 % 1007,6 hPa 0,0 mm 3,9 km/h (1 Bft) O-SO 257 0 min 8,9 C 17,8 C 19,3 km/h (3 Bft)
06.07.2020 02:45 18,3 C 54 % 1007,4 hPa 0,0 mm 8,8 km/h (2 Bft) O-NO 289 0 min 8,8 C 18,3 C 29,0 km/h (5 Bft)
06.07.2020 02:30 18,5 C 53 % 1007,3 hPa 0,0 mm 6,2 km/h (2 Bft) O 266 0 min 8,7 C 18,5 C 20,9 km/h (4 Bft)
06.07.2020 02:15 18,9 C 51 % 1007,3 hPa 0,0 mm 11,8 km/h (2 Bft) O 266 0 min 8,5 C 18,9 C 41,8 km/h (6 Bft)
06.07.2020 02:00 19,3 C 52 % 1007,3 hPa 0,0 mm 10,0 km/h (2 Bft) NO 310 0 min 9,2 C 19,3 C 32,2 km/h (5 Bft)
06.07.2020 01:45 19,7 C 54 % 1007,2 hPa 0,0 mm 14,6 km/h (3 Bft) O 263 0 min 10,1 C 19,7 C 40,2 km/h (6 Bft)
06.07.2020 01:30 19,7 C 67 % 1007,1 hPa 0,0 mm 5,5 km/h (1 Bft) O 281 0 min 13,4 C 19,7 C 24,1 km/h (4 Bft)
06.07.2020 01:15 19,7 C 73 % 1007,0 hPa 0,0 mm 2,8 km/h (1 Bft) O 267 0 min 14,7 C 19,7 C 20,9 km/h (4 Bft)
06.07.2020 01:00 19,6 C 74 % 1007,0 hPa 0,0 mm 2,0 km/h (1 Bft) O 281 0 min 14,8 C 19,6 C 16,1 km/h (3 Bft)
06.07.2020 00:45 19,3 C 74 % 1006,9 hPa 0,0 mm 0,0 km/h (0 Bft) S 183 0 min 14,5 C 19,3 C 1,6 km/h (1 Bft)
06.07.2020 00:30 19,3 C 75 % 1006,9 hPa 0,0 mm 0,0 km/h (0 Bft) S 175 0 min 14,8 C 19,3 C 0,0 km/h (0 Bft)
06.07.2020 00:15 19,3 C 75 % 1007,0 hPa 0,0 mm 0,0 km/h (0 Bft) S 175 0 min 14,8 C 19,3 C 0,0 km/h (0 Bft)
06.07.2020 00:00 19,3 C 75 % 1007,1 hPa 0,0 mm 0,0 km/h (0 Bft) S 175 0 min 14,8 C 19,3 C 0,0 km/h (0 Bft)
_ Min-Heure 05:00 02:15 00:30 - 00:00 - - - 02:15 05:00 00:00
Minimum _ 14,9 C 51 % 1006,9 hPa - 0,0 km/h (0 Bft) - - - 8,5 C 14,9 C 0,0 km/h (0 Bft)
_ Max-Heure 01:15 00:00 05:00 00:00 01:45 - - 00:00 01:00 01:15 02:15
Maximum _ 19,7 C 75 % 1008,4 hPa 0,0 mm 14,6 km/h
O (3 Bft)
- - 0 min 14,8 C 19,7 C 41,8 km/h
O (6 Bft)
Moyenne _ 17,9 C 66 % 1007,5 hPa #0,0 mm 4,3 km/h (1 Bft) O - #0 min. 11,3 C 17,9 C 16,7 km/h (3 Bft)